sensor_id;sensor_type;location;lat;lon;timestamp;pressure;altitude;pressure_sealevel;temperature;humidity
22753;BME280;11543;43.144;24.684;2024-01-07T00:01:34;97428.00;;;11.94;65.59
22753;BME280;11543;43.144;24.684;2024-01-07T00:03:59;97425.13;;;11.96;65.31
22753;BME280;11543;43.144;24.684;2024-01-07T00:06:25;97412.53;;;11.96;65.48
22753;BME280;11543;43.144;24.684;2024-01-07T00:08:50;97411.31;;;12.05;65.04
22753;BME280;11543;43.144;24.684;2024-01-07T00:11:16;97397.03;;;11.98;65.14
22753;BME280;11543;43.144;24.684;2024-01-07T00:13:42;97413.19;;;12.05;65.16
22753;BME280;11543;43.144;24.684;2024-01-07T00:16:07;97401.13;;;11.94;65.19
22753;BME280;11543;43.144;24.684;2024-01-07T00:18:33;97415.53;;;12.15;65.12
22753;BME280;11543;43.144;24.684;2024-01-07T00:20:58;97389.59;;;12.00;65.09
22753;BME280;11543;43.144;24.684;2024-01-07T00:23:24;97383.34;;;11.93;65.15
22753;BME280;11543;43.144;24.684;2024-01-07T00:25:50;97364.31;;;11.88;65.33
22753;BME280;11543;43.144;24.684;2024-01-07T00:28:15;97372.22;;;11.96;65.45
22753;BME280;11543;43.144;24.684;2024-01-07T00:30:41;97355.66;;;11.93;65.56
22753;BME280;11543;43.144;24.684;2024-01-07T00:33:06;97348.41;;;11.93;65.62
22753;BME280;11543;43.144;24.684;2024-01-07T00:35:32;97377.09;;;12.21;65.44
22753;BME280;11543;43.144;24.684;2024-01-07T00:37:57;97362.75;;;12.13;65.41
22753;BME280;11543;43.144;24.684;2024-01-07T00:40:23;97355.72;;;12.06;65.28
22753;BME280;11543;43.144;24.684;2024-01-07T00:42:49;97356.53;;;12.06;65.21
22753;BME280;11543;43.144;24.684;2024-01-07T00:45:15;97367.31;;;12.13;65.12
22753;BME280;11543;43.144;24.684;2024-01-07T00:47:41;97351.56;;;12.03;65.31
22753;BME280;11543;43.144;24.684;2024-01-07T00:50:07;97331.28;;;11.94;64.99
22753;BME280;11543;43.144;24.684;2024-01-07T00:52:32;97356.97;;;12.10;64.92
22753;BME280;11543;43.144;24.684;2024-01-07T00:54:58;97338.09;;;11.97;65.01
22753;BME280;11543;43.144;24.684;2024-01-07T00:57:23;97332.28;;;11.93;65.18
22753;BME280;11543;43.144;24.684;2024-01-07T00:59:49;97350.09;;;12.01;65.27
22753;BME280;11543;43.144;24.684;2024-01-07T01:02:15;97358.19;;;12.07;65.06
22753;BME280;11543;43.144;24.684;2024-01-07T01:04:41;97340.00;;;12.09;65.62
22753;BME280;11543;43.144;24.684;2024-01-07T01:07:07;97312.63;;;11.86;65.92
22753;BME280;11543;43.144;24.684;2024-01-07T01:09:35;97309.22;;;11.71;66.58
22753;BME280;11543;43.144;24.684;2024-01-07T01:12:01;97317.69;;;11.68;66.44
22753;BME280;11543;43.144;24.684;2024-01-07T01:14:26;97318.72;;;11.67;66.96
22753;BME280;11543;43.144;24.684;2024-01-07T01:16:52;97303.41;;;11.61;67.07
22753;BME280;11543;43.144;24.684;2024-01-07T01:19:18;97315.00;;;11.68;67.37
22753;BME280;11543;43.144;24.684;2024-01-07T01:21:43;97286.03;;;11.57;67.55
22753;BME280;11543;43.144;24.684;2024-01-07T01:24:09;97295.97;;;11.63;67.78
22753;BME280;11543;43.144;24.684;2024-01-07T01:26:34;97294.78;;;11.72;67.74
22753;BME280;11543;43.144;24.684;2024-01-07T01:29:00;97269.72;;;11.65;67.48
22753;BME280;11543;43.144;24.684;2024-01-07T01:31:25;97303.06;;;11.77;67.57
22753;BME280;11543;43.144;24.684;2024-01-07T01:33:51;97258.75;;;11.60;67.71
22753;BME280;11543;43.144;24.684;2024-01-07T01:36:16;97279.91;;;11.76;67.87
22753;BME280;11543;43.144;24.684;2024-01-07T01:38:42;97262.72;;;11.64;67.93
22753;BME280;11543;43.144;24.684;2024-01-07T01:41:07;97247.00;;;11.61;68.18
22753;BME280;11543;43.144;24.684;2024-01-07T01:43:33;97255.91;;;11.68;67.90
22753;BME280;11543;43.144;24.684;2024-01-07T01:45:59;97285.75;;;11.79;67.92
22753;BME280;11543;43.144;24.684;2024-01-07T01:48:26;97247.22;;;11.66;67.70
22753;BME280;11543;43.144;24.684;2024-01-07T01:50:53;97251.78;;;11.72;67.43
22753;BME280;11543;43.144;24.684;2024-01-07T01:53:19;97243.53;;;11.73;67.78
22753;BME280;11543;43.144;24.684;2024-01-07T01:55:45;97231.91;;;11.60;67.58
22753;BME280;11543;43.144;24.684;2024-01-07T01:58:13;97201.22;;;11.34;67.66
22753;BME280;11543;43.144;24.684;2024-01-07T02:00:38;97196.66;;;11.28;67.71
22753;BME280;11543;43.144;24.684;2024-01-07T02:03:04;97181.25;;;11.09;67.87
22753;BME280;11543;43.144;24.684;2024-01-07T02:05:30;97192.00;;;11.09;68.17
22753;BME280;11543;43.144;24.684;2024-01-07T02:07:56;97222.22;;;11.24;68.74
22753;BME280;11543;43.144;24.684;2024-01-07T02:10:23;97185.03;;;11.21;68.86
22753;BME280;11543;43.144;24.684;2024-01-07T02:12:48;97171.00;;;11.19;68.62
22753;BME280;11543;43.144;24.684;2024-01-07T02:15:14;97202.72;;;11.43;68.77
22753;BME280;11543;43.144;24.684;2024-01-07T02:17:40;97198.81;;;11.53;68.80
22753;BME280;11543;43.144;24.684;2024-01-07T02:20:06;97178.97;;;11.40;68.98
22753;BME280;11543;43.144;24.684;2024-01-07T02:22:33;97191.78;;;11.45;68.82
22753;BME280;11543;43.144;24.684;2024-01-07T02:24:59;97195.91;;;11.47;69.75
22753;BME280;11543;43.144;24.684;2024-01-07T02:27:24;97176.03;;;11.35;70.29
22753;BME280;11543;43.144;24.684;2024-01-07T02:29:50;97169.88;;;11.41;70.39
22753;BME280;11543;43.144;24.684;2024-01-07T02:32:15;97157.47;;;11.40;70.46
22753;BME280;11543;43.144;24.684;2024-01-07T02:34:41;97138.69;;;11.40;70.40
22753;BME280;11543;43.144;24.684;2024-01-07T02:37:06;97140.13;;;11.36;71.08
22753;BME280;11543;43.144;24.684;2024-01-07T02:39:32;97131.84;;;11.31;71.38
22753;BME280;11543;43.144;24.684;2024-01-07T02:41:57;97146.72;;;11.40;71.40
22753;BME280;11543;43.144;24.684;2024-01-07T02:44:22;97132.88;;;11.30;71.44
22753;BME280;11543;43.144;24.684;2024-01-07T02:46:48;97137.16;;;11.25;71.76
22753;BME280;11543;43.144;24.684;2024-01-07T02:49:14;97122.28;;;11.22;71.94
22753;BME280;11543;43.144;24.684;2024-01-07T02:51:39;97136.84;;;11.47;72.11
22753;BME280;11543;43.144;24.684;2024-01-07T02:54:05;97121.94;;;11.38;72.03
22753;BME280;11543;43.144;24.684;2024-01-07T02:56:30;97099.22;;;11.34;71.54
22753;BME280;11543;43.144;24.684;2024-01-07T02:58:56;97111.66;;;11.48;71.51
22753;BME280;11543;43.144;24.684;2024-01-07T03:01:22;97122.41;;;11.55;71.57
22753;BME280;11543;43.144;24.684;2024-01-07T03:03:48;97090.56;;;11.39;71.42
22753;BME280;11543;43.144;24.684;2024-01-07T03:06:14;97124.47;;;11.60;71.01
22753;BME280;11543;43.144;24.684;2024-01-07T03:08:39;97107.13;;;11.62;70.80
22753;BME280;11543;43.144;24.684;2024-01-07T03:11:05;97086.03;;;11.53;70.74
22753;BME280;11543;43.144;24.684;2024-01-07T03:13:31;97100.94;;;11.75;70.59
22753;BME280;11543;43.144;24.684;2024-01-07T03:15:57;97081.50;;;11.60;70.30
22753;BME280;11543;43.144;24.684;2024-01-07T03:18:22;97089.78;;;11.65;70.18
22753;BME280;11543;43.144;24.684;2024-01-07T03:20:48;97074.91;;;11.62;70.08
22753;BME280;11543;43.144;24.684;2024-01-07T03:23:13;97076.34;;;11.65;69.97
22753;BME280;11543;43.144;24.684;2024-01-07T03:25:39;97048.03;;;11.56;70.09
22753;BME280;11543;43.144;24.684;2024-01-07T03:28:05;97069.53;;;11.75;70.66
22753;BME280;11543;43.144;24.684;2024-01-07T03:30:30;97018.28;;;11.51;70.92
22753;BME280;11543;43.144;24.684;2024-01-07T03:32:55;97016.63;;;11.49;71.54
22753;BME280;11543;43.144;24.684;2024-01-07T03:35:21;97041.84;;;11.62;72.49
22753;BME280;11543;43.144;24.684;2024-01-07T03:37:49;97014.56;;;11.52;72.46
22753;BME280;11543;43.144;24.684;2024-01-07T03:40:15;97010.44;;;11.56;72.54
22753;BME280;11543;43.144;24.684;2024-01-07T03:42:40;97035.84;;;11.73;72.68
22753;BME280;11543;43.144;24.684;2024-01-07T03:45:06;97021.78;;;11.58;72.15
22753;BME280;11543;43.144;24.684;2024-01-07T03:47:31;97014.56;;;11.52;72.17
22753;BME280;11543;43.144;24.684;2024-01-07T03:49:57;97050.53;;;11.77;72.34
22753;BME280;11543;43.144;24.684;2024-01-07T03:52:22;96999.06;;;11.54;71.86
22753;BME280;11543;43.144;24.684;2024-01-07T03:54:48;97011.25;;;11.69;71.88
22753;BME280;11543;43.144;24.684;2024-01-07T03:57:13;97027.41;;;11.83;71.90
22753;BME280;11543;43.144;24.684;2024-01-07T03:59:39;96993.09;;;11.85;71.87
22753;BME280;11543;43.144;24.684;2024-01-07T04:02:04;96985.66;;;11.93;71.78
22753;BME280;11543;43.144;24.684;2024-01-07T04:04:30;96949.47;;;11.76;71.92
22753;BME280;11543;43.144;24.684;2024-01-07T04:06:56;96953.63;;;11.78;71.90
22753;BME280;11543;43.144;24.684;2024-01-07T04:09:21;96978.63;;;11.92;71.96
22753;BME280;11543;43.144;24.684;2024-01-07T04:11:47;96939.38;;;11.78;71.88
22753;BME280;11543;43.144;24.684;2024-01-07T04:14:16;96935.66;;;11.79;71.91
22753;BME280;11543;43.144;24.684;2024-01-07T04:16:43;96951.13;;;11.90;72.43
22753;BME280;11543;43.144;24.684;2024-01-07T04:19:08;96951.13;;;11.90;72.36
22753;BME280;11543;43.144;24.684;2024-01-07T04:21:34;96936.88;;;11.70;73.52
22753;BME280;11543;43.144;24.684;2024-01-07T04:24:01;96964.16;;;11.93;73.64
22753;BME280;11543;43.144;24.684;2024-01-07T04:26:26;96944.31;;;11.94;73.31
22753;BME280;11543;43.144;24.684;2024-01-07T04:28:52;96915.59;;;11.88;73.18
22753;BME280;11543;43.144;24.684;2024-01-07T04:31:17;96924.03;;;11.98;73.04
22753;BME280;11543;43.144;24.684;2024-01-07T04:33:43;96923.84;;;11.93;72.80
22753;BME280;11543;43.144;24.684;2024-01-07T04:36:09;96922.59;;;11.96;72.72
22753;BME280;11543;43.144;24.684;2024-01-07T04:38:35;96929.41;;;12.05;72.62
22753;BME280;11543;43.144;24.684;2024-01-07T04:41:00;96895.94;;;11.94;72.76
22753;BME280;11543;43.144;24.684;2024-01-07T04:43:26;96892.22;;;11.95;72.62
22753;BME280;11543;43.144;24.684;2024-01-07T04:45:51;96912.84;;;12.15;72.87
22753;BME280;11543;43.144;24.684;2024-01-07T04:48:17;96906.22;;;12.10;73.09
22753;BME280;11543;43.144;24.684;2024-01-07T04:50:43;96878.53;;;12.03;72.85
22753;BME280;11543;43.144;24.684;2024-01-07T04:53:09;96905.19;;;12.18;73.20
22753;BME280;11543;43.144;24.684;2024-01-07T04:55:34;96909.94;;;12.23;73.15
22753;BME280;11543;43.144;24.684;2024-01-07T04:58:01;96911.16;;;12.27;73.13
22753;BME280;11543;43.144;24.684;2024-01-07T05:00:27;96909.47;;;12.32;72.93
22753;BME280;11543;43.144;24.684;2024-01-07T05:02:52;96913.78;;;12.40;72.95
22753;BME280;11543;43.144;24.684;2024-01-07T05:05:18;96880.13;;;12.31;72.55
22753;BME280;11543;43.144;24.684;2024-01-07T05:07:43;96911.50;;;12.43;72.49
22753;BME280;11543;43.144;24.684;2024-01-07T05:10:09;96898.69;;;12.39;72.36
22753;BME280;11543;43.144;24.684;2024-01-07T05:12:35;96887.13;;;12.32;72.29
22753;BME280;11543;43.144;24.684;2024-01-07T05:15:00;96901.56;;;12.44;72.64
22753;BME280;11543;43.144;24.684;2024-01-07T05:17:26;96872.22;;;12.36;72.64
22753;BME280;11543;43.144;24.684;2024-01-07T05:19:54;96854.06;;;12.31;72.72
22753;BME280;11543;43.144;24.684;2024-01-07T05:22:20;96842.06;;;12.27;72.38
22753;BME280;11543;43.144;24.684;2024-01-07T05:24:46;96835.72;;;12.08;72.22
22753;BME280;11543;43.144;24.684;2024-01-07T05:27:12;96852.47;;;12.10;73.01
22753;BME280;11543;43.144;24.684;2024-01-07T05:29:37;96859.88;;;12.22;72.84
22753;BME280;11543;43.144;24.684;2024-01-07T05:32:03;96853.91;;;12.20;72.72
22753;BME280;11543;43.144;24.684;2024-01-07T05:34:29;96860.31;;;12.19;72.71
22753;BME280;11543;43.144;24.684;2024-01-07T05:36:54;96871.88;;;12.26;72.77
22753;BME280;11543;43.144;24.684;2024-01-07T05:39:20;96862.16;;;12.25;72.85
22753;BME280;11543;43.144;24.684;2024-01-07T05:41:46;96852.44;;;12.24;72.77
22753;BME280;11543;43.144;24.684;2024-01-07T05:44:11;96864.16;;;12.36;72.78
22753;BME280;11543;43.144;24.684;2024-01-07T05:46:41;96877.00;;;12.34;72.83
22753;BME280;11543;43.144;24.684;2024-01-07T05:49:07;96831.03;;;11.97;72.44
22753;BME280;11543;43.144;24.684;2024-01-07T05:51:33;96897.13;;;12.18;71.60
22753;BME280;11543;43.144;24.684;2024-01-07T05:53:59;96888.03;;;12.06;71.62
22753;BME280;11543;43.144;24.684;2024-01-07T05:56:24;96898.78;;;12.12;71.09
22753;BME280;11543;43.144;24.684;2024-01-07T05:58:50;96880.19;;;12.04;70.97
22753;BME280;11543;43.144;24.684;2024-01-07T06:01:22;96865.16;;;11.90;70.31
22753;BME280;11543;43.144;24.684;2024-01-07T06:03:47;96866.19;;;11.76;70.65
22753;BME280;11543;43.144;24.684;2024-01-07T06:06:16;96886.47;;;11.85;70.93
22753;BME280;11543;43.144;24.684;2024-01-07T06:08:44;96879.84;;;11.81;70.94
22753;BME280;11543;43.144;24.684;2024-01-07T06:11:10;96861.25;;;11.73;71.11
22753;BME280;11543;43.144;24.684;2024-01-07T06:13:37;96867.84;;;11.90;71.06
22753;BME280;11543;43.144;24.684;2024-01-07T06:16:03;96842.25;;;11.81;70.94
22753;BME280;11543;43.144;24.684;2024-01-07T06:18:28;96866.59;;;11.93;70.92
22753;BME280;11543;43.144;24.684;2024-01-07T06:20:57;96857.50;;;11.94;70.70
22753;BME280;11543;43.144;24.684;2024-01-07T06:23:22;96862.03;;;11.93;70.68
22753;BME280;11543;43.144;24.684;2024-01-07T06:25:49;96880.63;;;11.95;70.14
22753;BME280;11543;43.144;24.684;2024-01-07T06:28:14;96853.03;;;11.55;68.16
22753;BME280;11543;43.144;24.684;2024-01-07T06:30:40;96867.91;;;11.51;67.78
22753;BME280;11543;43.144;24.684;2024-01-07T06:33:08;96869.19;;;11.28;67.69
22753;BME280;11543;43.144;24.684;2024-01-07T06:35:33;96894.38;;;11.27;67.37
22753;BME280;11543;43.144;24.684;2024-01-07T06:38:01;96850.59;;;10.87;67.06
22753;BME280;11543;43.144;24.684;2024-01-07T06:40:27;96871.59;;;10.64;67.93
22753;BME280;11543;43.144;24.684;2024-01-07T06:42:52;96910.78;;;10.58;69.64
22753;BME280;11543;43.144;24.684;2024-01-07T06:45:18;96882.63;;;10.28;70.80
22753;BME280;11543;43.144;24.684;2024-01-07T06:47:43;96888.81;;;10.35;71.00
22753;BME280;11543;43.144;24.684;2024-01-07T06:50:10;96892.53;;;10.34;71.89
22753;BME280;11543;43.144;24.684;2024-01-07T06:52:35;96898.16;;;10.04;73.20
22753;BME280;11543;43.144;24.684;2024-01-07T06:55:01;96905.56;;;10.02;74.00
22753;BME280;11543;43.144;24.684;2024-01-07T06:57:26;96879.38;;;9.56;75.52
22753;BME280;11543;43.144;24.684;2024-01-07T06:59:52;96889.19;;;9.49;76.44
22753;BME280;11543;43.144;24.684;2024-01-07T07:02:20;96878.78;;;9.33;77.51
22753;BME280;11543;43.144;24.684;2024-01-07T07:04:45;96855.13;;;9.37;77.52
22753;BME280;11543;43.144;24.684;2024-01-07T07:07:11;96917.19;;;9.53;77.22
22753;BME280;11543;43.144;24.684;2024-01-07T07:09:36;96909.06;;;9.62;77.63
22753;BME280;11543;43.144;24.684;2024-01-07T07:12:02;96898.53;;;9.32;78.69
22753;BME280;11543;43.144;24.684;2024-01-07T07:14:27;96904.94;;;9.10;80.04
22753;BME280;11543;43.144;24.684;2024-01-07T07:16:53;96940.47;;;9.04;80.90
22753;BME280;11543;43.144;24.684;2024-01-07T07:19:18;96930.69;;;8.89;81.25
22753;BME280;11543;43.144;24.684;2024-01-07T07:21:44;96937.41;;;9.07;81.02
22753;BME280;11543;43.144;24.684;2024-01-07T07:24:10;96940.88;;;8.79;81.17
22753;BME280;11543;43.144;24.684;2024-01-07T07:26:35;96958.47;;;8.38;82.04
22753;BME280;11543;43.144;24.684;2024-01-07T07:29:06;96987.41;;;8.19;83.20
22753;BME280;11543;43.144;24.684;2024-01-07T07:31:32;97002.81;;;7.80;83.80
22753;BME280;11543;43.144;24.684;2024-01-07T07:33:57;97013.72;;;7.93;84.56
22753;BME280;11543;43.144;24.684;2024-01-07T07:36:23;97000.50;;;7.62;84.36
22753;BME280;11543;43.144;24.684;2024-01-07T07:38:49;97011.81;;;7.49;84.90
22753;BME280;11543;43.144;24.684;2024-01-07T07:41:14;97002.06;;;7.56;85.56
22753;BME280;11543;43.144;24.684;2024-01-07T07:43:40;97012.28;;;7.53;85.67
22753;BME280;11543;43.144;24.684;2024-01-07T07:46:05;97002.34;;;7.61;85.88
22753;BME280;11543;43.144;24.684;2024-01-07T07:48:31;96985.88;;;7.73;85.82
22753;BME280;11543;43.144;24.684;2024-01-07T07:50:56;96967.97;;;7.81;85.71
22753;BME280;11543;43.144;24.684;2024-01-07T07:53:22;96964.28;;;7.82;85.77
22753;BME280;11543;43.144;24.684;2024-01-07T07:55:47;96960.78;;;7.96;85.54
22753;BME280;11543;43.144;24.684;2024-01-07T07:58:13;96962.16;;;8.07;84.91
22753;BME280;11543;43.144;24.684;2024-01-07T08:00:38;96953.75;;;8.25;84.72
22753;BME280;11543;43.144;24.684;2024-01-07T08:03:04;96944.63;;;8.49;84.26
22753;BME280;11543;43.144;24.684;2024-01-07T08:05:30;96951.56;;;8.79;83.53
22753;BME280;11543;43.144;24.684;2024-01-07T08:07:55;96937.19;;;8.80;82.77
22753;BME280;11543;43.144;24.684;2024-01-07T08:10:21;96949.66;;;8.94;82.13
22753;BME280;11543;43.144;24.684;2024-01-07T08:12:48;96980.72;;;9.17;81.45
22753;BME280;11543;43.144;24.684;2024-01-07T08:15:14;96989.88;;;9.29;80.62
22753;BME280;11543;43.144;24.684;2024-01-07T08:17:40;97002.63;;;9.27;80.38
22753;BME280;11543;43.144;24.684;2024-01-07T08:20:06;96990.16;;;9.13;79.90
22753;BME280;11543;43.144;24.684;2024-01-07T08:22:31;96993.53;;;9.00;80.62
22753;BME280;11543;43.144;24.684;2024-01-07T08:24:57;97007.84;;;9.14;80.74
22753;BME280;11543;43.144;24.684;2024-01-07T08:27:23;96999.19;;;8.90;81.57
22753;BME280;11543;43.144;24.684;2024-01-07T08:29:48;96982.88;;;8.85;81.89
22753;BME280;11543;43.144;24.684;2024-01-07T08:32:14;96985.16;;;8.67;83.48
22753;BME280;11543;43.144;24.684;2024-01-07T08:34:39;96977.88;;;8.61;83.80
22753;BME280;11543;43.144;24.684;2024-01-07T08:37:05;96972.06;;;8.72;83.65
22753;BME280;11543;43.144;24.684;2024-01-07T08:39:30;96982.75;;;8.93;83.57
22753;BME280;11543;43.144;24.684;2024-01-07T08:41:56;96957.94;;;9.00;83.54
22753;BME280;11543;43.144;24.684;2024-01-07T08:44:22;97003.13;;;9.37;82.96
22753;BME280;11543;43.144;24.684;2024-01-07T08:46:47;96987.31;;;9.42;82.62
22753;BME280;11543;43.144;24.684;2024-01-07T08:49:14;96997.25;;;9.70;82.39
22753;BME280;11543;43.144;24.684;2024-01-07T08:51:39;97007.28;;;9.89;81.76
22753;BME280;11543;43.144;24.684;2024-01-07T08:54:05;96986.09;;;9.94;81.89
22753;BME280;11543;43.144;24.684;2024-01-07T08:56:30;97001.94;;;10.24;82.41
22753;BME280;11543;43.144;24.684;2024-01-07T08:58:56;96946.38;;;10.04;81.85
22753;BME280;11543;43.144;24.684;2024-01-07T09:01:23;96966.47;;;10.21;82.02
22753;BME280;11543;43.144;24.684;2024-01-07T09:03:49;96936.19;;;10.21;82.44
22753;BME280;11543;43.144;24.684;2024-01-07T09:06:15;96956.13;;;10.53;82.44
22753;BME280;11543;43.144;24.684;2024-01-07T09:08:43;96964.03;;;10.74;82.50
22753;BME280;11543;43.144;24.684;2024-01-07T09:11:09;96962.81;;;10.83;82.37
22753;BME280;11543;43.144;24.684;2024-01-07T09:13:38;96956.25;;;10.93;82.23
22753;BME280;11543;43.144;24.684;2024-01-07T09:16:04;96956.66;;;11.03;82.26
22753;BME280;11543;43.144;24.684;2024-01-07T09:18:30;96955.03;;;11.22;81.71
22753;BME280;11543;43.144;24.684;2024-01-07T09:20:56;96946.41;;;11.33;81.26
22753;BME280;11543;43.144;24.684;2024-01-07T09:23:22;96950.13;;;11.38;80.98
22753;BME280;11543;43.144;24.684;2024-01-07T09:25:48;96931.94;;;11.34;80.80
22753;BME280;11543;43.144;24.684;2024-01-07T09:28:14;96954.66;;;11.51;81.27
22753;BME280;11543;43.144;24.684;2024-01-07T09:30:40;96950.53;;;11.48;81.16
22753;BME280;11543;43.144;24.684;2024-01-07T09:33:07;96940.81;;;11.54;81.13
22753;BME280;11543;43.144;24.684;2024-01-07T09:35:32;96919.97;;;11.49;80.55
22753;BME280;11543;43.144;24.684;2024-01-07T09:37:58;96958.81;;;11.80;80.46
22753;BME280;11543;43.144;24.684;2024-01-07T09:40:23;96931.31;;;11.65;80.25
22753;BME280;11543;43.144;24.684;2024-01-07T09:42:50;96937.31;;;11.80;79.97
22753;BME280;11543;43.144;24.684;2024-01-07T09:45:15;96938.53;;;11.91;79.45
22753;BME280;11543;43.144;24.684;2024-01-07T09:47:44;96956.25;;;12.11;79.25
22753;BME280;11543;43.144;24.684;2024-01-07T09:50:11;96958.56;;;12.15;79.16
22753;BME280;11543;43.144;24.684;2024-01-07T09:52:44;96962.69;;;12.17;79.63
22753;BME280;11543;43.144;24.684;2024-01-07T09:55:12;96964.53;;;12.17;79.92
22753;BME280;11543;43.144;24.684;2024-01-07T09:57:44;96967.41;;;12.22;79.66
22753;BME280;11543;43.144;24.684;2024-01-07T10:00:11;96943.03;;;12.17;79.32
22753;BME280;11543;43.144;24.684;2024-01-07T10:02:37;96956.66;;;12.28;78.93
22753;BME280;11543;43.144;24.684;2024-01-07T10:05:06;96935.16;;;12.22;78.90
22753;BME280;11543;43.144;24.684;2024-01-07T10:07:31;96922.34;;;12.10;79.18
22753;BME280;11543;43.144;24.684;2024-01-07T10:10:11;96932.69;;;12.20;79.23
22753;BME280;11543;43.144;24.684;2024-01-07T10:12:37;96942.53;;;12.39;78.76
22753;BME280;11543;43.144;24.684;2024-01-07T10:15:02;96945.00;;;12.41;78.55
22753;BME280;11543;43.144;24.684;2024-01-07T10:17:28;96957.38;;;12.55;78.28
22753;BME280;11543;43.144;24.684;2024-01-07T10:19:54;96918.56;;;12.38;78.37
22753;BME280;11543;43.144;24.684;2024-01-07T10:22:19;96949.06;;;12.63;78.65
22753;BME280;11543;43.144;24.684;2024-01-07T10:24:46;96963.88;;;12.79;78.90
22753;BME280;11543;43.144;24.684;2024-01-07T10:27:14;96934.38;;;12.59;78.41
22753;BME280;11543;43.144;24.684;2024-01-07T10:29:42;96948.19;;;12.69;78.44
22753;BME280;11543;43.144;24.684;2024-01-07T10:32:07;96945.06;;;12.72;78.08
22753;BME280;11543;43.144;24.684;2024-01-07T10:34:36;96956.00;;;12.77;78.07
22753;BME280;11543;43.144;24.684;2024-01-07T10:37:04;96946.91;;;12.79;78.15
22753;BME280;11543;43.144;24.684;2024-01-07T10:39:33;96953.06;;;12.86;78.01
22753;BME280;11543;43.144;24.684;2024-01-07T10:42:04;96939.00;;;12.84;77.96
22753;BME280;11543;43.144;24.684;2024-01-07T10:44:32;96941.44;;;12.92;77.88
22753;BME280;11543;43.144;24.684;2024-01-07T10:46:59;96936.06;;;12.92;77.98
22753;BME280;11543;43.144;24.684;2024-01-07T10:49:26;96937.66;;;12.99;78.07
22753;BME280;11543;43.144;24.684;2024-01-07T10:52:04;96942.59;;;13.09;77.98
22753;BME280;11543;43.144;24.684;2024-01-07T10:54:30;96926.88;;;13.06;77.61
22753;BME280;11543;43.144;24.684;2024-01-07T10:56:59;96910.75;;;13.06;77.54
22753;BME280;11543;43.144;24.684;2024-01-07T10:59:29;96936.28;;;13.28;77.27
22753;BME280;11543;43.144;24.684;2024-01-07T11:01:56;96910.66;;;13.19;77.02
22753;BME280;11543;43.144;24.684;2024-01-07T11:04:43;96934.09;;;13.44;76.76
22753;BME280;11543;43.144;24.684;2024-01-07T11:12:35;96897.44;;;13.43;76.21
22753;BME280;11543;43.144;24.684;2024-01-07T11:15:02;96915.72;;;13.59;76.10
22753;BME280;11543;43.144;24.684;2024-01-07T11:20:07;96943.16;;;13.99;75.61
22753;BME280;11543;43.144;24.684;2024-01-07T11:22:33;96909.25;;;13.85;75.34
22753;BME280;11543;43.144;24.684;2024-01-07T11:25:00;96906.66;;;13.96;75.18
22753;BME280;11543;43.144;24.684;2024-01-07T11:27:30;96923.00;;;14.20;74.44
22753;BME280;11543;43.144;24.684;2024-01-07T11:30:07;96924.50;;;14.34;73.98
22753;BME280;11543;43.144;24.684;2024-01-07T11:32:34;96924.81;;;14.44;74.13
22753;BME280;11543;43.144;24.684;2024-01-07T11:35:00;96904.13;;;14.38;73.94
22753;BME280;11543;43.144;24.684;2024-01-07T11:37:26;96901.59;;;14.43;73.71
22753;BME280;11543;43.144;24.684;2024-01-07T11:39:55;96892.44;;;14.44;73.70
22753;BME280;11543;43.144;24.684;2024-01-07T11:42:22;96907.28;;;14.53;73.43
22753;BME280;11543;43.144;24.684;2024-01-07T11:44:52;96899.53;;;14.57;72.81
22753;BME280;11543;43.144;24.684;2024-01-07T11:47:19;96904.13;;;14.56;72.55
22753;BME280;11543;43.144;24.684;2024-01-07T11:49:45;96873.03;;;14.35;71.98
22753;BME280;11543;43.144;24.684;2024-01-07T11:52:12;96907.59;;;14.45;71.99
22753;BME280;11543;43.144;24.684;2024-01-07T11:54:41;96913.56;;;14.47;71.17
22753;BME280;11543;43.144;24.684;2024-01-07T11:57:07;96905.75;;;14.39;70.88
22753;BME280;11543;43.144;24.684;2024-01-07T11:59:36;96889.91;;;14.13;70.98
22753;BME280;11543;43.144;24.684;2024-01-07T12:02:03;96912.97;;;14.27;70.85
22753;BME280;11543;43.144;24.684;2024-01-07T12:04:34;96903.59;;;14.11;70.63
22753;BME280;11543;43.144;24.684;2024-01-07T12:07:00;96892.16;;;13.97;70.64
22753;BME280;11543;43.144;24.684;2024-01-07T12:09:27;96910.72;;;14.06;70.10
22753;BME280;11543;43.144;24.684;2024-01-07T12:11:53;96907.28;;;13.98;70.15
22753;BME280;11543;43.144;24.684;2024-01-07T12:14:19;96885.34;;;13.70;70.34
22753;BME280;11543;43.144;24.684;2024-01-07T12:16:46;96902.72;;;13.74;70.21
22753;BME280;11543;43.144;24.684;2024-01-07T12:19:12;96927.28;;;13.84;70.85
22753;BME280;11543;43.144;24.684;2024-01-07T12:21:38;96909.00;;;13.68;71.07
22753;BME280;11543;43.144;24.684;2024-01-07T12:24:04;96910.28;;;13.65;71.38
22753;BME280;11543;43.144;24.684;2024-01-07T12:26:30;96920.16;;;13.71;71.65
22753;BME280;11543;43.144;24.684;2024-01-07T12:29:18;96930.00;;;13.84;72.14
22753;BME280;11543;43.144;24.684;2024-01-07T12:31:44;96914.41;;;13.68;72.09
22753;BME280;11543;43.144;24.684;2024-01-07T12:34:26;96899.56;;;13.59;72.13
22753;BME280;11543;43.144;24.684;2024-01-07T12:36:56;96914.41;;;13.68;72.21
22753;BME280;11543;43.144;24.684;2024-01-07T12:39:21;96930.13;;;13.71;72.47
22753;BME280;11543;43.144;24.684;2024-01-07T12:42:06;96954.00;;;13.92;72.45
22753;BME280;11543;43.144;24.684;2024-01-07T12:44:36;96958.34;;;13.93;72.39
22753;BME280;11543;43.144;24.684;2024-01-07T12:47:12;96944.28;;;13.85;72.28
22753;BME280;11543;43.144;24.684;2024-01-07T12:50:02;96963.88;;;13.98;72.49
22753;BME280;11543;43.144;24.684;2024-01-07T12:52:38;96970.47;;;14.02;72.11
22753;BME280;11543;43.144;24.684;2024-01-07T12:55:05;96959.31;;;13.99;72.05
22753;BME280;11543;43.144;24.684;2024-01-07T12:57:31;96974.97;;;14.09;72.41